createdAt,value
2022-12-19T00:02:26.119Z,18.14
2022-12-19T00:07:35.062Z,18.72
2022-12-19T00:12:44.087Z,21.66
2022-12-19T00:17:53.029Z,23.87
2022-12-19T00:23:02.331Z,20.73
2022-12-19T00:28:11.187Z,18.70
2022-12-19T00:33:20.186Z,20.21
2022-12-19T00:38:29.043Z,19.34
2022-12-19T00:43:38.354Z,17.35
2022-12-19T00:48:46.992Z,19.77
2022-12-19T00:53:56.300Z,19.81
2022-12-19T00:59:04.981Z,19.07
2022-12-19T01:04:30.307Z,19.29
2022-12-19T01:09:22.617Z,20.07
2022-12-19T01:14:32.160Z,18.20
2022-12-19T01:19:44.359Z,17.73
2022-12-19T01:24:49.640Z,19.45
2022-12-19T01:29:58.972Z,18.28
2022-12-19T01:35:13.381Z,18.83
2022-12-19T01:40:16.370Z,19.81
2022-12-19T01:45:32.010Z,20.88
2022-12-19T01:50:34.182Z,22.18
2022-12-19T01:55:43.565Z,20.32
2022-12-19T02:00:52.470Z,19.96
2022-12-19T02:06:01.426Z,18.17
2022-12-19T02:11:10.396Z,18.83
2022-12-19T02:16:19.441Z,19.04
2022-12-19T02:21:27.486Z,15.89
2022-12-19T02:26:37.415Z,17.97
2022-12-19T02:31:46.335Z,15.91
2022-12-19T02:36:55.955Z,17.40
2022-12-19T02:42:04.678Z,16.14
2022-12-19T02:47:13.720Z,15.32
2022-12-19T02:52:22.782Z,15.06
2022-12-19T02:57:31.743Z,15.47
2022-12-19T03:02:40.825Z,14.01
2022-12-19T03:07:49.655Z,16.96
2022-12-19T03:12:58.167Z,14.88
2022-12-19T03:18:07.264Z,14.54
2022-12-19T03:23:16.280Z,13.80
2022-12-19T03:28:25.323Z,15.09
2022-12-19T03:33:34.808Z,15.52
2022-12-19T03:38:44.431Z,16.43
2022-12-19T03:43:53.209Z,17.14
2022-12-19T03:49:02.029Z,16.67
2022-12-19T03:54:10.790Z,15.12
2022-12-19T03:59:19.471Z,16.19
2022-12-19T04:04:28.086Z,17.50
2022-12-19T04:09:36.779Z,15.30
2022-12-19T04:14:46.246Z,17.64
2022-12-19T04:19:55.468Z,15.47
2022-12-19T04:25:04.521Z,16.04
2022-12-19T04:30:13.763Z,15.25
2022-12-19T04:35:22.697Z,16.30
2022-12-19T04:40:35.451Z,16.63
2022-12-19T04:45:41.387Z,16.97
2022-12-19T04:50:50.361Z,16.19
2022-12-19T04:55:59.303Z,16.97
2022-12-19T05:01:08.665Z,16.35
2022-12-19T05:06:17.881Z,16.78
2022-12-19T05:11:27.059Z,17.35
2022-12-19T05:16:36.600Z,16.85
2022-12-19T05:21:46.085Z,15.14
2022-12-19T05:26:54.833Z,15.59
2022-12-19T05:32:04.841Z,16.50
2022-12-19T05:37:04.180Z,15.02
2022-12-19T05:42:13.161Z,15.95
2022-12-19T05:47:22.106Z,15.99
2022-12-19T05:52:32.000Z,18.67
2022-12-19T05:57:40.813Z,16.74
2022-12-19T06:02:50.397Z,17.39
2022-12-19T06:07:59.507Z,20.23
2022-12-19T06:13:08.820Z,17.50
2022-12-19T06:18:18.500Z,15.85
2022-12-19T06:23:28.073Z,15.94
2022-12-19T06:28:37.865Z,17.31
2022-12-19T06:33:47.127Z,18.70
2022-12-19T06:38:56.925Z,18.95
2022-12-19T06:44:06.313Z,16.83
2022-12-19T06:49:15.251Z,14.49
2022-12-19T06:54:25.215Z,15.02
2022-12-19T06:59:34.090Z,14.55
2022-12-19T07:04:46.561Z,15.43
2022-12-19T07:09:45.668Z,13.53
2022-12-19T07:14:55.190Z,14.90
2022-12-19T07:20:04.422Z,13.92
2022-12-19T07:25:14.275Z,13.48
2022-12-19T07:30:23.672Z,11.91
2022-12-19T07:35:33.043Z,12.76
2022-12-19T07:40:43.096Z,11.70
2022-12-19T07:45:43.063Z,11.67
2022-12-19T07:50:51.788Z,13.26
2022-12-19T07:56:01.863Z,13.20
2022-12-19T08:01:00.567Z,11.05
2022-12-19T08:06:10.894Z,12.78
2022-12-19T08:11:09.860Z,12.16
2022-12-19T08:16:20.419Z,10.00
2022-12-19T08:21:20.144Z,11.43
2022-12-19T08:26:32.545Z,10.53
2022-12-19T08:31:39.177Z,9.11
2022-12-19T08:36:48.723Z,9.48
2022-12-19T08:41:57.861Z,11.63
2022-12-19T08:47:07.627Z,9.21
2022-12-19T08:52:16.954Z,9.90
2022-12-19T08:57:26.400Z,8.82
2022-12-19T09:02:36.437Z,8.80
2022-12-19T09:07:45.628Z,8.44
2022-12-19T09:12:57.767Z,8.06
2022-12-19T09:18:04.810Z,8.15
2022-12-19T09:23:04.469Z,8.17
2022-12-19T09:28:28.052Z,7.05
2022-12-19T09:33:24.341Z,8.49
2022-12-19T09:38:24.677Z,7.77
2022-12-19T09:43:23.565Z,7.40
2022-12-19T09:48:33.397Z,6.62
2022-12-19T09:53:43.543Z,7.59
2022-12-19T09:58:43.231Z,6.02
2022-12-19T10:03:52.808Z,8.61
2022-12-19T10:09:43.968Z,6.90
2022-12-19T10:14:11.266Z,5.35
2022-12-19T10:19:20.589Z,7.38
2022-12-19T10:24:34.846Z,7.79
2022-12-19T10:29:38.806Z,6.68
2022-12-19T10:34:48.584Z,8.18
2022-12-19T10:39:57.845Z,7.65
2022-12-19T10:45:07.098Z,6.73
2022-12-19T10:50:17.174Z,7.63
2022-12-19T10:55:16.428Z,7.21
2022-12-19T11:00:27.253Z,7.32
2022-12-19T11:05:26.420Z,8.05
2022-12-19T11:11:51.188Z,7.29
2022-12-19T11:21:27.028Z,7.05
2022-12-19T11:29:40.134Z,6.73
2022-12-19T11:30:59.412Z,5.66
2022-12-19T11:36:21.368Z,7.08
2022-12-19T11:41:31.015Z,7.29
2022-12-19T11:46:40.376Z,8.27
2022-12-19T11:51:50.077Z,7.71
2022-12-19T11:56:59.586Z,6.94
2022-12-19T12:02:09.499Z,7.74
2022-12-19T12:07:49.720Z,8.19
2022-12-19T12:17:24.369Z,8.23
2022-12-19T12:30:55.028Z,9.02
2022-12-19T12:31:15.934Z,8.70
2022-12-19T12:31:49.210Z,9.87
2022-12-19T12:35:31.647Z,10.66
2022-12-19T12:38:23.600Z,21.71
2022-12-19T12:43:10.780Z,23.17
2022-12-19T12:48:20.141Z,14.69
2022-12-19T12:53:29.615Z,11.38
2022-12-19T12:58:39.228Z,14.90
2022-12-19T13:03:48.408Z,15.95
2022-12-19T13:08:57.305Z,22.55
2022-12-19T13:14:06.870Z,24.85
2022-12-19T13:19:19.678Z,13.80
2022-12-19T13:24:25.076Z,11.60
2022-12-19T13:29:34.427Z,10.01
2022-12-19T13:34:46.779Z,8.22
2022-12-19T13:40:07.430Z,9.64
2022-12-19T13:45:01.189Z,12.21
2022-12-19T13:50:10.335Z,12.03
2022-12-19T13:55:19.197Z,13.34
2022-12-19T14:00:27.913Z,13.63
2022-12-19T14:06:16.096Z,10.59
2022-12-19T14:11:32.574Z,11.62
2022-12-19T14:15:55.292Z,10.12
2022-12-19T14:22:04.810Z,7.40
2022-12-19T14:28:19.582Z,8.83
2022-12-19T14:31:21.627Z,10.20
2022-12-19T14:36:30.467Z,9.73
2022-12-19T14:41:39.459Z,10.29
2022-12-19T14:52:36.054Z,11.71
2022-12-19T14:54:53.976Z,9.77
2022-12-19T14:57:05.838Z,9.77
2022-12-19T15:02:14.613Z,10.61
2022-12-19T15:07:23.292Z,10.68
2022-12-19T15:14:47.270Z,12.02
2022-12-19T15:17:40.545Z,11.42
2022-12-19T15:22:49.328Z,16.14
2022-12-19T15:27:58.115Z,12.82
2022-12-19T15:33:06.893Z,13.60
2022-12-19T15:38:16.183Z,13.42
2022-12-19T15:44:01.693Z,16.78
2022-12-19T15:48:34.326Z,21.67
2022-12-19T15:53:43.135Z,16.11
2022-12-19T15:58:52.522Z,17.57
2022-12-19T16:04:01.265Z,19.17
2022-12-19T16:09:10.033Z,17.25
2022-12-19T16:14:18.743Z,14.96
2022-12-19T16:19:27.856Z,16.38
2022-12-19T16:24:36.626Z,13.27
2022-12-19T16:29:45.480Z,15.96
2022-12-19T16:34:53.823Z,16.17
2022-12-19T16:40:02.430Z,15.83
2022-12-19T16:45:10.768Z,16.33
2022-12-19T16:50:19.744Z,17.40
2022-12-19T16:55:28.191Z,16.83
2022-12-19T17:00:36.801Z,15.41
2022-12-19T17:05:45.020Z,16.89
2022-12-19T17:10:53.607Z,17.88
2022-12-19T17:16:02.057Z,16.21
2022-12-19T17:21:10.855Z,16.41
2022-12-19T17:26:19.349Z,21.59
2022-12-19T17:31:28.747Z,22.87
2022-12-19T17:36:38.014Z,15.43
2022-12-19T17:41:45.888Z,16.35
2022-12-19T17:46:54.056Z,17.17
2022-12-19T17:52:03.485Z,17.34
2022-12-19T17:57:11.650Z,15.48
2022-12-19T18:02:21.324Z,15.58
2022-12-19T18:07:29.807Z,15.47
2022-12-19T18:12:38.724Z,18.90
2022-12-19T18:17:47.389Z,17.03
2022-12-19T18:22:56.963Z,17.24
2022-12-19T18:28:06.056Z,18.18
2022-12-19T18:33:14.578Z,15.75
2022-12-19T18:38:23.414Z,20.34
2022-12-19T18:43:32.992Z,26.03
2022-12-19T18:48:41.351Z,28.38
2022-12-19T18:53:49.787Z,26.70
2022-12-19T18:58:58.519Z,27.36
2022-12-19T19:04:07.502Z,31.51
2022-12-19T19:09:16.406Z,35.29
2022-12-19T19:14:25.335Z,33.99
2022-12-19T19:19:34.144Z,26.62
2022-12-19T19:24:43.605Z,24.58
2022-12-19T19:29:52.564Z,27.06
2022-12-19T19:35:01.772Z,28.00
2022-12-19T19:40:10.523Z,28.81
2022-12-19T19:45:19.503Z,33.89
2022-12-19T19:50:28.250Z,29.31
2022-12-19T19:55:37.100Z,26.26
2022-12-19T20:00:45.443Z,26.39
2022-12-19T20:05:54.452Z,26.25
2022-12-19T20:11:03.440Z,23.22
2022-12-19T20:16:12.690Z,22.76
2022-12-19T20:21:21.169Z,23.61
2022-12-19T20:26:29.899Z,21.28
2022-12-19T20:31:37.998Z,18.62
2022-12-19T20:36:47.136Z,21.60
2022-12-19T20:41:55.692Z,19.75
2022-12-19T20:47:04.573Z,19.53
2022-12-19T20:52:13.059Z,20.02
2022-12-19T20:57:21.775Z,20.37
2022-12-19T21:02:46.612Z,19.81
2022-12-19T21:07:39.332Z,20.02
2022-12-19T21:12:48.306Z,18.45
2022-12-19T21:17:56.266Z,18.52
2022-12-19T21:23:04.908Z,18.70
2022-12-19T21:28:13.812Z,24.65
2022-12-19T21:33:22.551Z,18.26
2022-12-19T21:38:31.567Z,17.26
2022-12-19T21:43:39.971Z,19.06
2022-12-19T21:48:49.219Z,17.14
2022-12-19T21:53:57.735Z,17.27
2022-12-19T21:59:06.880Z,18.56
2022-12-19T22:04:15.460Z,19.20
2022-12-19T22:09:23.709Z,21.53
2022-12-19T22:14:32.454Z,18.48
2022-12-19T22:19:41.280Z,18.78
2022-12-19T22:24:49.623Z,21.42
2022-12-19T22:29:58.241Z,20.95
2022-12-19T22:35:06.428Z,19.26
2022-12-19T22:40:15.364Z,21.23
2022-12-19T22:45:24.274Z,19.99
2022-12-19T22:50:33.334Z,20.16
2022-12-19T22:55:41.985Z,17.79
2022-12-19T23:00:50.645Z,17.82
2022-12-19T23:05:59.321Z,20.03
2022-12-19T23:11:08.333Z,19.76
2022-12-19T23:16:17.007Z,17.58
2022-12-19T23:21:25.824Z,20.15
2022-12-19T23:26:34.509Z,21.10
2022-12-19T23:31:43.817Z,19.48
2022-12-19T23:37:12.433Z,19.61
2022-12-19T23:42:00.760Z,19.65
2022-12-19T23:47:09.230Z,19.27
2022-12-19T23:52:18.429Z,18.91
2022-12-19T23:57:27.876Z,19.73
